createdAt,value
2023-02-25T00:01:32.323Z,22.06
2023-02-25T00:03:59.705Z,22.06
2023-02-25T00:06:26.526Z,22.05
2023-02-25T00:08:54.390Z,22.04
2023-02-25T00:11:23.470Z,22.04
2023-02-25T00:13:50.530Z,22.03
2023-02-25T00:16:19.070Z,22.04
2023-02-25T00:18:46.925Z,22.03
2023-02-25T00:21:16.072Z,22.02
2023-02-25T00:23:45.016Z,22.01
2023-02-25T00:26:12.156Z,22.01
2023-02-25T00:28:40.433Z,21.91
2023-02-25T00:31:12.254Z,22.00
2023-02-25T00:33:42.176Z,21.99
2023-02-25T00:36:21.533Z,21.99
2023-02-25T00:38:52.901Z,21.97
2023-02-25T00:41:21.944Z,21.97
2023-02-25T00:43:51.685Z,21.96
2023-02-25T00:46:18.899Z,21.96
2023-02-25T00:48:45.824Z,21.96
2023-02-25T00:51:15.278Z,21.93
2023-02-25T00:53:43.845Z,21.95
2023-02-25T00:56:15.644Z,21.95
2023-02-25T00:58:48.364Z,21.95
2023-02-25T01:01:19.489Z,21.94
2023-02-25T01:03:46.910Z,21.93
2023-02-25T01:06:15.086Z,21.93
2023-02-25T01:08:41.958Z,21.82
2023-02-25T01:11:20.838Z,21.92
2023-02-25T01:13:50.852Z,21.91
2023-02-25T01:16:23.127Z,21.91
2023-02-25T01:18:55.012Z,21.90
2023-02-25T01:21:34.951Z,21.90
2023-02-25T01:24:08.072Z,21.88
2023-02-25T01:26:37.440Z,21.88
2023-02-25T01:29:16.476Z,21.88
2023-02-25T01:31:44.693Z,21.88
2023-02-25T01:34:14.821Z,21.87
2023-02-25T01:36:42.190Z,21.85
2023-02-25T01:39:10.038Z,21.85
2023-02-25T01:41:37.649Z,21.85
2023-02-25T01:44:16.156Z,21.85
2023-02-25T01:46:47.444Z,21.85
2023-02-25T01:49:38.545Z,21.84
2023-02-25T01:52:13.193Z,21.84
2023-02-25T01:54:40.697Z,21.84
2023-02-25T01:57:10.347Z,21.84
2023-02-25T01:59:39.044Z,21.83
2023-02-25T02:02:08.661Z,21.82
2023-02-25T02:04:37.773Z,21.81
2023-02-25T02:07:04.350Z,21.81
2023-02-25T02:09:31.350Z,21.73
2023-02-25T02:12:04.546Z,21.80
2023-02-25T02:14:41.267Z,21.71
2023-02-25T02:17:35.830Z,21.79
2023-02-25T02:20:13.693Z,21.78
2023-02-25T02:22:59.434Z,21.78
2023-02-25T02:25:52.710Z,21.77
2023-02-25T02:28:57.798Z,21.75
2023-02-25T02:31:45.035Z,21.73
2023-02-25T02:34:27.418Z,21.74
2023-02-25T02:36:59.739Z,21.74
2023-02-25T02:39:29.402Z,21.73
2023-02-25T02:41:59.858Z,21.69
2023-02-25T02:44:36.268Z,21.72
2023-02-25T02:47:17.863Z,21.72
2023-02-25T02:50:11.908Z,21.71
2023-02-25T02:52:48.669Z,21.69
2023-02-25T02:55:24.259Z,21.70
2023-02-25T02:57:58.276Z,21.70
2023-02-25T03:00:30.647Z,21.69
2023-02-25T03:03:02.581Z,21.68
2023-02-25T03:05:31.691Z,21.68
2023-02-25T03:08:11.854Z,21.68
2023-02-25T03:10:38.597Z,21.68
2023-02-25T03:13:05.938Z,21.67
2023-02-25T03:15:33.508Z,21.67
2023-02-25T03:18:42.525Z,21.66
2023-02-25T03:21:18.478Z,21.65
2023-02-25T03:23:47.613Z,21.64
2023-02-25T03:26:23.982Z,21.63
2023-02-25T03:28:56.404Z,21.63
2023-02-25T03:31:35.092Z,21.62
2023-02-25T03:34:08.549Z,21.62
2023-02-25T03:36:40.966Z,21.61
2023-02-25T03:39:21.811Z,21.59
2023-02-25T03:41:55.431Z,21.49
2023-02-25T03:44:31.571Z,21.58
2023-02-25T03:46:59.797Z,21.57
2023-02-25T03:50:00.498Z,21.56
2023-02-25T03:52:28.473Z,21.56
2023-02-25T03:54:59.462Z,21.54
2023-02-25T03:57:36.038Z,21.54
2023-02-25T04:00:15.572Z,21.53
2023-02-25T04:02:43.077Z,21.53
2023-02-25T04:05:12.489Z,21.52
2023-02-25T04:07:39.388Z,21.49
2023-02-25T04:10:11.214Z,21.50
2023-02-25T04:12:38.936Z,21.49
2023-02-25T04:15:06.565Z,21.47
2023-02-25T04:17:34.199Z,21.50
2023-02-25T04:20:00.731Z,21.48
2023-02-25T04:22:27.577Z,21.44
2023-02-25T04:24:54.114Z,21.46
2023-02-25T04:27:21.018Z,21.45
2023-02-25T04:29:47.584Z,21.44
2023-02-25T04:32:14.182Z,21.44
2023-02-25T04:34:40.983Z,21.44
2023-02-25T04:37:09.199Z,21.44
2023-02-25T04:39:36.171Z,21.42
2023-02-25T04:42:02.854Z,21.41
2023-02-25T04:44:29.399Z,21.40
2023-02-25T04:46:56.116Z,21.40
2023-02-25T04:49:23.352Z,21.40
2023-02-25T04:51:51.496Z,21.39
2023-02-25T04:54:19.811Z,21.37
2023-02-25T04:56:47.293Z,21.36
2023-02-25T04:59:14.397Z,21.36
2023-02-25T05:01:41.602Z,21.37
2023-02-25T05:04:08.178Z,21.35
2023-02-25T05:06:34.747Z,21.34
2023-02-25T05:09:01.307Z,21.33
2023-02-25T05:11:28.980Z,21.33
2023-02-25T05:13:57.032Z,21.31
2023-02-25T05:16:24.999Z,21.31
2023-02-25T05:18:52.394Z,21.22
2023-02-25T05:21:21.417Z,21.32
2023-02-25T05:23:50.297Z,21.30
2023-02-25T05:26:21.931Z,21.30
2023-02-25T05:28:57.066Z,21.30
2023-02-25T05:31:25.120Z,21.29
2023-02-25T05:33:52.581Z,21.29
2023-02-25T05:36:19.826Z,21.25
2023-02-25T05:38:46.991Z,21.28
2023-02-25T05:41:14.729Z,21.27
2023-02-25T05:43:42.302Z,21.20
2023-02-25T05:46:11.872Z,21.22
2023-02-25T05:48:40.158Z,21.25
2023-02-25T05:51:10.479Z,21.24
2023-02-25T05:53:37.344Z,21.22
2023-02-25T05:56:09.720Z,21.13
2023-02-25T05:58:36.486Z,21.23
2023-02-25T06:01:24.689Z,21.22
2023-02-25T06:03:58.508Z,21.21
2023-02-25T06:06:28.468Z,21.22
2023-02-25T06:08:55.371Z,21.21
2023-02-25T06:11:27.666Z,21.20
2023-02-25T06:13:54.747Z,21.19
2023-02-25T06:16:22.555Z,21.19
2023-02-25T06:18:51.385Z,21.13
2023-02-25T06:21:18.610Z,21.18
2023-02-25T06:23:50.143Z,21.17
2023-02-25T06:26:17.057Z,21.17
2023-02-25T06:28:43.818Z,21.16
2023-02-25T06:31:14.710Z,21.05
2023-02-25T06:33:41.806Z,21.10
2023-02-25T06:36:09.366Z,21.11
2023-02-25T06:38:36.802Z,21.11
2023-02-25T06:41:09.275Z,21.11
2023-02-25T06:43:36.585Z,21.08
2023-02-25T06:46:07.866Z,21.07
2023-02-25T06:48:34.808Z,21.10
2023-02-25T06:51:02.821Z,21.10
2023-02-25T06:53:29.558Z,21.09
2023-02-25T06:55:59.037Z,21.01
2023-02-25T06:58:25.676Z,21.12
2023-02-25T07:00:52.277Z,21.10
2023-02-25T07:03:19.043Z,21.12
2023-02-25T07:05:45.579Z,21.13
2023-02-25T07:08:12.235Z,21.13
2023-02-25T07:10:40.561Z,21.14
2023-02-25T07:13:08.871Z,21.13
2023-02-25T07:15:35.928Z,21.13
2023-02-25T07:18:03.816Z,21.14
2023-02-25T07:20:30.926Z,21.13
2023-02-25T07:22:57.902Z,21.15
2023-02-25T07:25:24.596Z,21.15
2023-02-25T07:27:51.443Z,21.16
2023-02-25T07:30:18.231Z,21.17
2023-02-25T07:32:45.587Z,21.14
2023-02-25T07:35:12.810Z,21.19
2023-02-25T07:37:39.697Z,21.19
2023-02-25T07:40:13.096Z,21.20
2023-02-25T07:42:43.359Z,21.19
2023-02-25T07:45:12.155Z,21.20
2023-02-25T07:47:39.223Z,21.18
2023-02-25T07:50:07.224Z,21.21
2023-02-25T07:52:34.132Z,21.21
2023-02-25T07:55:05.102Z,21.21
2023-02-25T07:57:32.071Z,21.22
2023-02-25T07:59:58.850Z,21.23
2023-02-25T08:02:25.811Z,21.24
2023-02-25T08:04:52.621Z,21.23
2023-02-25T08:07:20.381Z,21.24
2023-02-25T08:09:46.913Z,21.25
2023-02-25T08:12:13.608Z,21.26
2023-02-25T08:14:40.153Z,21.26
2023-02-25T08:17:06.927Z,21.27
2023-02-25T08:19:34.118Z,21.27
2023-02-25T08:22:00.823Z,21.27
2023-02-25T08:24:27.834Z,21.18
2023-02-25T08:26:54.808Z,21.29
2023-02-25T08:29:21.484Z,21.30
2023-02-25T08:31:53.168Z,21.29
2023-02-25T08:34:22.278Z,21.32
2023-02-25T08:36:49.990Z,21.32
2023-02-25T08:39:17.177Z,21.33
2023-02-25T08:41:44.802Z,21.34
2023-02-25T08:44:11.855Z,21.34
2023-02-25T08:46:40.436Z,21.34
2023-02-25T08:49:07.171Z,21.36
2023-02-25T08:51:34.206Z,21.33
2023-02-25T08:54:09.486Z,21.34
2023-02-25T08:56:37.009Z,21.28
2023-02-25T08:59:04.811Z,21.33
2023-02-25T09:01:44.858Z,21.34
2023-02-25T09:04:23.452Z,21.34
2023-02-25T09:06:53.852Z,21.22
2023-02-25T09:09:21.988Z,21.34
2023-02-25T09:11:49.363Z,21.36
2023-02-25T09:14:16.919Z,21.36
2023-02-25T09:16:44.200Z,21.36
2023-02-25T09:19:15.620Z,21.25
2023-02-25T09:21:42.475Z,21.36
2023-02-25T09:24:09.961Z,21.35
2023-02-25T09:26:36.951Z,21.30
2023-02-25T09:29:10.130Z,21.35
2023-02-25T09:31:37.541Z,21.35
2023-02-25T09:34:08.233Z,21.33
2023-02-25T09:36:34.914Z,21.35
2023-02-25T09:39:02.481Z,21.37
2023-02-25T09:41:35.406Z,21.38
2023-02-25T09:44:13.494Z,21.38
2023-02-25T09:46:48.477Z,21.39
2023-02-25T09:49:38.543Z,21.39
2023-02-25T09:52:16.795Z,21.39
2023-02-25T09:54:46.687Z,21.39
2023-02-25T09:57:22.488Z,21.32
2023-02-25T09:59:52.290Z,21.36
2023-02-25T10:02:29.372Z,21.39
2023-02-25T10:04:55.974Z,21.39
2023-02-25T10:07:28.486Z,21.31
2023-02-25T10:10:21.758Z,21.39
2023-02-25T10:13:00.509Z,21.39
2023-02-25T10:15:30.278Z,21.38
2023-02-25T10:18:15.672Z,21.38
2023-02-25T10:20:57.314Z,21.38
2023-02-25T10:23:40.781Z,21.38
2023-02-25T10:26:23.775Z,21.38
2023-02-25T10:28:58.406Z,21.38
2023-02-25T10:31:27.711Z,21.38
2023-02-25T10:33:57.195Z,21.39
2023-02-25T10:36:46.617Z,21.38
2023-02-25T10:39:13.259Z,21.38
2023-02-25T10:41:40.097Z,21.39
2023-02-25T10:44:06.708Z,21.39
2023-02-25T10:46:38.795Z,21.41
2023-02-25T10:49:25.396Z,21.41
2023-02-25T10:52:05.375Z,21.40
2023-02-25T10:54:33.775Z,21.41
2023-02-25T10:57:08.279Z,21.41
2023-02-25T10:59:38.669Z,21.41
2023-02-25T11:02:22.091Z,21.41
2023-02-25T11:04:50.438Z,21.43
2023-02-25T11:07:43.299Z,21.44
2023-02-25T11:10:13.314Z,21.42
2023-02-25T11:12:53.031Z,21.43
2023-02-25T11:15:45.310Z,21.43
2023-02-25T11:18:27.484Z,21.41
2023-02-25T11:21:02.954Z,21.41
2023-02-25T11:23:35.549Z,21.41
2023-02-25T11:26:03.301Z,21.40
2023-02-25T11:28:43.765Z,21.41
2023-02-25T11:31:19.124Z,21.40
2023-02-25T11:33:53.489Z,21.40
2023-02-25T11:36:26.515Z,21.27
2023-02-25T11:39:04.263Z,21.37
2023-02-25T11:41:32.414Z,21.37
2023-02-25T11:44:16.995Z,21.36
2023-02-25T11:46:46.118Z,21.34
2023-02-25T11:49:21.759Z,21.35
2023-02-25T11:52:02.292Z,21.35
2023-02-25T11:54:45.315Z,21.36
2023-02-25T11:57:35.507Z,21.34
2023-02-25T12:00:20.841Z,21.34
2023-02-25T12:03:01.295Z,21.35
2023-02-25T12:05:35.152Z,21.34
2023-02-25T12:08:25.085Z,21.34
2023-02-25T12:11:25.774Z,21.33
2023-02-25T12:14:29.285Z,21.32
2023-02-25T12:17:13.947Z,21.33
2023-02-25T12:20:01.741Z,21.32
2023-02-25T12:22:52.883Z,21.33
2023-02-25T12:25:30.145Z,21.24
2023-02-25T12:28:24.911Z,21.33
2023-02-25T12:31:03.157Z,21.34
2023-02-25T12:33:48.335Z,21.33
2023-02-25T12:36:33.529Z,21.34
2023-02-25T12:39:25.290Z,21.34
2023-02-25T12:41:58.232Z,21.34
2023-02-25T12:44:55.130Z,21.33
2023-02-25T12:47:33.853Z,21.34
2023-02-25T12:50:16.377Z,21.34
2023-02-25T12:52:57.737Z,21.32
2023-02-25T12:55:44.821Z,21.34
2023-02-25T12:58:33.711Z,21.35
2023-02-25T13:01:18.950Z,21.35
2023-02-25T13:03:57.600Z,21.34
2023-02-25T13:07:02.011Z,21.34
2023-02-25T13:10:03.286Z,21.33
2023-02-25T13:12:57.685Z,21.32
2023-02-25T13:15:49.403Z,21.32
2023-02-25T13:18:18.742Z,21.32
2023-02-25T13:21:12.428Z,21.32
2023-02-25T13:24:03.476Z,21.31
2023-02-25T13:26:48.226Z,21.31
2023-02-25T13:29:39.695Z,21.31
2023-02-25T13:32:09.108Z,21.31
2023-02-25T13:37:15.815Z,21.31
2023-02-25T13:40:26.875Z,21.30
2023-02-25T13:43:26.036Z,21.29
2023-02-25T13:46:28.388Z,20.94
2023-02-25T13:49:26.867Z,21.28
2023-02-25T13:52:28.708Z,21.24
2023-02-25T13:55:11.516Z,21.25
2023-02-25T13:58:06.602Z,21.23
2023-02-25T14:00:56.386Z,21.23
2023-02-25T14:03:32.161Z,21.22
2023-02-25T14:06:11.932Z,21.21
2023-02-25T14:09:07.469Z,21.21
2023-02-25T14:11:43.983Z,21.21
2023-02-25T14:14:54.617Z,21.20
2023-02-25T14:17:30.160Z,21.20
2023-02-25T14:20:40.194Z,21.20
2023-02-25T14:23:45.516Z,21.21
2023-02-25T14:26:22.618Z,21.20
2023-02-25T14:29:07.548Z,21.20
2023-02-25T14:31:46.942Z,21.19
2023-02-25T14:34:35.054Z,21.20
2023-02-25T14:37:24.834Z,21.18
2023-02-25T14:39:57.482Z,21.19
2023-02-25T14:42:24.060Z,21.19
2023-02-25T14:45:10.724Z,21.18
2023-02-25T14:47:55.826Z,21.16
2023-02-25T14:50:32.243Z,21.17
2023-02-25T14:53:36.046Z,21.16
2023-02-25T14:56:15.174Z,21.15
2023-02-25T14:58:57.107Z,21.14
2023-02-25T15:01:55.730Z,21.13
2023-02-25T15:04:41.822Z,21.13
2023-02-25T15:07:29.957Z,21.13
2023-02-25T15:10:21.709Z,21.12
2023-02-25T15:13:10.380Z,21.11
2023-02-25T15:15:40.853Z,21.10
2023-02-25T15:18:19.479Z,21.10
2023-02-25T15:20:46.774Z,21.10
2023-02-25T15:23:14.492Z,21.08
2023-02-25T15:25:50.546Z,21.09
2023-02-25T15:28:29.285Z,21.08
2023-02-25T15:30:58.919Z,21.08
2023-02-25T15:33:40.757Z,21.08
2023-02-25T15:36:17.276Z,21.07
2023-02-25T15:38:53.868Z,21.08
2023-02-25T15:41:26.532Z,21.07
2023-02-25T15:44:00.304Z,21.07
2023-02-25T15:46:36.020Z,21.06
2023-02-25T15:49:15.872Z,21.06
2023-02-25T15:51:51.434Z,21.05
2023-02-25T15:54:30.322Z,21.04
2023-02-25T15:57:24.562Z,21.03
2023-02-25T15:59:55.400Z,21.02
2023-02-25T16:02:33.241Z,21.03
2023-02-25T16:05:01.954Z,21.02
2023-02-25T16:07:36.087Z,20.99
2023-02-25T16:10:09.129Z,21.01
2023-02-25T16:12:38.636Z,21.01
2023-02-25T16:15:06.135Z,21.02
2023-02-25T16:17:35.402Z,21.00
2023-02-25T16:20:25.641Z,21.01
2023-02-25T16:22:57.391Z,21.00
2023-02-25T16:25:49.002Z,21.00
2023-02-25T16:28:24.635Z,20.99
2023-02-25T16:31:12.442Z,20.99
2023-02-25T16:34:07.810Z,20.98
2023-02-25T16:36:47.326Z,20.96
2023-02-25T16:39:13.841Z,20.96
2023-02-25T16:41:41.901Z,20.96
2023-02-25T16:44:08.972Z,20.85
2023-02-25T16:46:39.017Z,20.96
2023-02-25T16:49:11.165Z,20.94
2023-02-25T16:51:41.265Z,20.94
2023-02-25T16:54:17.799Z,20.94
2023-02-25T16:56:47.036Z,20.83
2023-02-25T16:59:13.506Z,20.94
2023-02-25T17:01:49.027Z,20.93
2023-02-25T17:04:19.784Z,20.92
2023-02-25T17:07:17.923Z,20.92
2023-02-25T17:09:48.863Z,20.92
2023-02-25T17:12:43.690Z,20.92
2023-02-25T17:15:40.687Z,20.91
2023-02-25T17:18:13.237Z,20.84
2023-02-25T17:20:39.959Z,20.92
2023-02-25T17:23:11.818Z,20.91
2023-02-25T17:25:42.026Z,20.88
2023-02-25T17:28:26.034Z,20.91
2023-02-25T17:30:54.889Z,20.91
2023-02-25T17:33:27.058Z,20.90
2023-02-25T17:35:58.839Z,20.91
2023-02-25T17:38:28.854Z,20.90
2023-02-25T17:40:55.664Z,20.90
2023-02-25T17:43:25.123Z,20.90
2023-02-25T17:46:01.169Z,20.90
2023-02-25T17:48:31.410Z,20.89
2023-02-25T17:51:07.810Z,20.88
2023-02-25T17:53:38.167Z,20.89
2023-02-25T17:56:28.852Z,20.89
2023-02-25T17:59:08.130Z,20.88
2023-02-25T18:01:56.548Z,20.85
2023-02-25T18:04:39.118Z,20.87
2023-02-25T18:07:22.276Z,20.87
2023-02-25T18:09:49.852Z,20.87
2023-02-25T18:12:27.656Z,20.87
2023-02-25T18:14:58.644Z,20.87
2023-02-25T18:17:52.931Z,20.87
2023-02-25T18:20:36.402Z,20.87
2023-02-25T18:23:16.028Z,20.88
2023-02-25T18:25:44.891Z,20.88
2023-02-25T18:28:24.270Z,20.87
2023-02-25T18:30:51.160Z,20.84
2023-02-25T18:33:18.528Z,20.87
2023-02-25T18:35:47.110Z,20.88
2023-02-25T18:38:20.637Z,20.88
2023-02-25T18:40:48.774Z,20.87
2023-02-25T18:43:20.358Z,20.87
2023-02-25T18:45:47.884Z,20.87
2023-02-25T18:48:14.717Z,20.88
2023-02-25T18:50:44.450Z,20.86
2023-02-25T18:53:19.169Z,20.86
2023-02-25T18:55:45.909Z,20.80
2023-02-25T18:58:14.569Z,20.85
2023-02-25T19:00:43.441Z,20.85
2023-02-25T19:03:14.567Z,20.84
2023-02-25T19:05:41.995Z,20.74
2023-02-25T19:08:13.104Z,20.83
2023-02-25T19:10:40.016Z,20.84
2023-02-25T19:13:16.470Z,20.83
2023-02-25T19:15:44.231Z,20.83
2023-02-25T19:18:15.198Z,20.82
2023-02-25T19:20:43.945Z,20.82
2023-02-25T19:23:15.914Z,20.83
2023-02-25T19:25:44.763Z,20.81
2023-02-25T19:28:11.610Z,20.80
2023-02-25T19:30:44.666Z,20.81
2023-02-25T19:33:12.576Z,20.80
2023-02-25T19:35:42.301Z,20.78
2023-02-25T19:38:13.634Z,20.80
2023-02-25T19:40:40.585Z,20.81
2023-02-25T19:43:11.271Z,20.80
2023-02-25T19:45:42.118Z,20.78
2023-02-25T19:48:12.426Z,20.77
2023-02-25T19:50:44.185Z,20.80
2023-02-25T19:56:09.430Z,20.76
2023-02-25T19:58:41.560Z,20.76
2023-02-25T20:01:11.363Z,20.75
2023-02-25T20:03:38.120Z,20.75
2023-02-25T20:06:09.550Z,20.75
2023-02-25T20:08:39.918Z,20.75
2023-02-25T20:11:10.683Z,20.74
2023-02-25T20:13:38.578Z,20.75
2023-02-25T20:16:08.545Z,20.67
2023-02-25T20:18:38.240Z,20.73
2023-02-25T20:21:05.837Z,20.73
2023-02-25T20:23:32.599Z,20.73
2023-02-25T20:26:10.922Z,20.72
2023-02-25T20:28:37.754Z,20.71
2023-02-25T20:31:16.219Z,20.71
2023-02-25T20:33:43.663Z,20.71
2023-02-25T20:36:22.182Z,20.70
2023-02-25T20:38:57.606Z,20.70
2023-02-25T20:41:25.596Z,20.69
2023-02-25T20:43:54.885Z,20.69
2023-02-25T20:46:28.448Z,20.67
2023-02-25T20:48:56.343Z,20.68
2023-02-25T20:51:26.129Z,20.67
2023-02-25T20:53:53.477Z,20.67
2023-02-25T20:56:23.577Z,20.67
2023-02-25T21:01:07.485Z,20.66
2023-02-25T21:03:34.459Z,20.66
2023-02-25T21:06:01.057Z,20.65
2023-02-25T21:08:27.765Z,20.65
2023-02-25T21:10:54.539Z,20.64
2023-02-25T21:13:24.344Z,20.63
2023-02-25T21:16:05.419Z,20.63
2023-02-25T21:18:36.227Z,20.62
2023-02-25T21:21:07.907Z,20.62
2023-02-25T21:23:36.306Z,20.62
2023-02-25T21:26:04.970Z,20.62
2023-02-25T21:28:32.346Z,20.61
2023-02-25T21:31:05.334Z,20.62
2023-02-25T21:33:33.314Z,20.61
2023-02-25T21:36:00.614Z,20.60
2023-02-25T21:38:28.162Z,20.60
2023-02-25T21:40:55.977Z,20.61
2023-02-25T21:43:23.076Z,20.60
2023-02-25T21:45:55.309Z,20.56
2023-02-25T21:48:22.802Z,20.60
2023-02-25T21:50:49.633Z,20.59
2023-02-25T21:53:16.655Z,20.47
2023-02-25T21:55:43.782Z,20.60
2023-02-25T21:58:11.692Z,20.59
2023-02-25T22:00:38.815Z,20.57
2023-02-25T22:03:06.162Z,20.59
2023-02-25T22:05:33.055Z,20.58
2023-02-25T22:07:59.686Z,20.57
2023-02-25T22:10:26.474Z,20.57
2023-02-25T22:12:54.056Z,20.56
2023-02-25T22:15:23.991Z,20.46
2023-02-25T22:17:50.627Z,20.55
2023-02-25T22:20:17.471Z,20.55
2023-02-25T22:22:44.178Z,20.54
2023-02-25T22:25:10.882Z,20.54
2023-02-25T22:27:37.400Z,20.54
2023-02-25T22:30:04.519Z,20.50
2023-02-25T22:32:31.321Z,20.53
2023-02-25T22:34:57.955Z,20.54
2023-02-25T22:37:25.105Z,20.54
2023-02-25T22:39:51.636Z,20.53
2023-02-25T22:42:18.207Z,20.52
2023-02-25T22:44:46.921Z,20.52
2023-02-25T22:47:13.468Z,20.51
2023-02-25T22:49:40.163Z,20.49
2023-02-25T22:52:06.712Z,20.50
2023-02-25T22:54:33.270Z,20.49
2023-02-25T22:56:59.839Z,20.50
2023-02-25T22:59:26.508Z,20.49
2023-02-25T23:01:53.583Z,20.48
2023-02-25T23:04:20.100Z,20.47
2023-02-25T23:06:48.100Z,20.49
2023-02-25T23:09:14.840Z,20.44
2023-02-25T23:11:43.277Z,20.47
2023-02-25T23:14:10.180Z,20.46
2023-02-25T23:16:40.399Z,20.47
2023-02-25T23:19:09.469Z,20.46
2023-02-25T23:21:38.458Z,20.45
2023-02-25T23:24:07.588Z,20.44
2023-02-25T23:26:39.082Z,20.44
2023-02-25T23:29:08.685Z,20.44
2023-02-25T23:31:42.550Z,20.44
2023-02-25T23:34:13.834Z,20.44
2023-02-25T23:36:42.360Z,20.42
2023-02-25T23:39:11.345Z,20.43
2023-02-25T23:41:39.236Z,20.40
2023-02-25T23:44:08.378Z,20.42
2023-02-25T23:46:35.942Z,20.39
2023-02-25T23:49:06.830Z,20.40
2023-02-25T23:51:34.201Z,20.40
2023-02-25T23:54:03.441Z,20.40
2023-02-25T23:56:31.244Z,20.39
2023-02-25T23:58:58.444Z,20.38
